sensor_id;sensor_type;location;lat;lon;timestamp;temperature;humidity
13598;DHT22;38563;54.258;12.574;2023-02-04T00:01:29;2.40;99.90
13598;DHT22;38563;54.258;12.574;2023-02-04T00:03:56;2.40;99.90
13598;DHT22;38563;54.258;12.574;2023-02-04T00:06:22;2.50;99.90
13598;DHT22;38563;54.258;12.574;2023-02-04T00:08:49;2.60;99.90
13598;DHT22;38563;54.258;12.574;2023-02-04T00:11:16;2.60;99.90
13598;DHT22;38563;54.258;12.574;2023-02-04T00:13:44;2.70;99.90
13598;DHT22;38563;54.258;12.574;2023-02-04T00:16:10;2.60;99.90
13598;DHT22;38563;54.258;12.574;2023-02-04T00:18:37;2.60;99.90
13598;DHT22;38563;54.258;12.574;2023-02-04T00:21:04;2.50;99.90
13598;DHT22;38563;54.258;12.574;2023-02-04T00:23:31;2.40;99.90
13598;DHT22;38563;54.258;12.574;2023-02-04T00:25:57;2.30;99.90
13598;DHT22;38563;54.258;12.574;2023-02-04T00:28:24;2.20;99.90
13598;DHT22;38563;54.258;12.574;2023-02-04T00:30:52;2.20;99.90
13598;DHT22;38563;54.258;12.574;2023-02-04T00:33:19;2.20;99.90
13598;DHT22;38563;54.258;12.574;2023-02-04T00:35:45;2.30;99.90
13598;DHT22;38563;54.258;12.574;2023-02-04T00:38:12;2.40;99.90
13598;DHT22;38563;54.258;12.574;2023-02-04T00:40:39;2.40;99.90
13598;DHT22;38563;54.258;12.574;2023-02-04T00:43:06;2.40;99.90
13598;DHT22;38563;54.258;12.574;2023-02-04T00:45:33;2.40;99.90
13598;DHT22;38563;54.258;12.574;2023-02-04T00:48:01;2.40;99.90
13598;DHT22;38563;54.258;12.574;2023-02-04T00:50:27;2.30;99.90
13598;DHT22;38563;54.258;12.574;2023-02-04T00:52:54;2.20;99.90
13598;DHT22;38563;54.258;12.574;2023-02-04T00:55:22;2.10;99.90
13598;DHT22;38563;54.258;12.574;2023-02-04T00:57:49;2.00;99.90
13598;DHT22;38563;54.258;12.574;2023-02-04T01:00:16;1.90;99.90
13598;DHT22;38563;54.258;12.574;2023-02-04T01:02:43;1.90;99.90
13598;DHT22;38563;54.258;12.574;2023-02-04T01:05:11;1.90;99.90
13598;DHT22;38563;54.258;12.574;2023-02-04T01:07:38;2.00;99.90
13598;DHT22;38563;54.258;12.574;2023-02-04T01:10:05;2.00;99.90
13598;DHT22;38563;54.258;12.574;2023-02-04T01:12:32;2.10;99.90
13598;DHT22;38563;54.258;12.574;2023-02-04T01:14:58;2.20;99.90
13598;DHT22;38563;54.258;12.574;2023-02-04T01:17:25;2.30;99.90
13598;DHT22;38563;54.258;12.574;2023-02-04T01:19:52;2.30;99.90
13598;DHT22;38563;54.258;12.574;2023-02-04T01:22:20;2.40;99.90
13598;DHT22;38563;54.258;12.574;2023-02-04T01:24:47;2.30;99.90
13598;DHT22;38563;54.258;12.574;2023-02-04T01:27:33;2.40;99.90
13598;DHT22;38563;54.258;12.574;2023-02-04T01:30:02;2.40;99.90
13598;DHT22;38563;54.258;12.574;2023-02-04T01:32:29;2.50;99.90
13598;DHT22;38563;54.258;12.574;2023-02-04T01:34:56;2.40;99.90
13598;DHT22;38563;54.258;12.574;2023-02-04T01:37:24;2.40;99.90
13598;DHT22;38563;54.258;12.574;2023-02-04T01:39:51;2.40;99.90
13598;DHT22;38563;54.258;12.574;2023-02-04T01:42:17;2.50;99.90
13598;DHT22;38563;54.258;12.574;2023-02-04T01:44:45;2.50;99.90
13598;DHT22;38563;54.258;12.574;2023-02-04T01:47:12;2.50;99.90
13598;DHT22;38563;54.258;12.574;2023-02-04T01:49:39;2.50;99.90
13598;DHT22;38563;54.258;12.574;2023-02-04T01:52:06;2.60;99.90
13598;DHT22;38563;54.258;12.574;2023-02-04T01:54:35;2.60;99.90
13598;DHT22;38563;54.258;12.574;2023-02-04T01:57:04;2.60;99.90
13598;DHT22;38563;54.258;12.574;2023-02-04T01:59:32;2.50;99.90
13598;DHT22;38563;54.258;12.574;2023-02-04T02:01:59;2.50;99.90
13598;DHT22;38563;54.258;12.574;2023-02-04T02:04:29;2.50;99.90
13598;DHT22;38563;54.258;12.574;2023-02-04T02:07:02;2.60;99.90
13598;DHT22;38563;54.258;12.574;2023-02-04T02:09:31;2.60;99.90
13598;DHT22;38563;54.258;12.574;2023-02-04T02:12:00;2.60;99.90
13598;DHT22;38563;54.258;12.574;2023-02-04T02:14:28;2.60;99.90
13598;DHT22;38563;54.258;12.574;2023-02-04T02:16:56;2.60;99.90
13598;DHT22;38563;54.258;12.574;2023-02-04T02:19:26;2.60;99.90
13598;DHT22;38563;54.258;12.574;2023-02-04T02:21:57;2.60;99.90
13598;DHT22;38563;54.258;12.574;2023-02-04T02:24:30;2.60;99.90
13598;DHT22;38563;54.258;12.574;2023-02-04T02:26:59;2.60;99.90
13598;DHT22;38563;54.258;12.574;2023-02-04T02:29:27;2.60;99.90
13598;DHT22;38563;54.258;12.574;2023-02-04T02:31:54;2.50;99.90
13598;DHT22;38563;54.258;12.574;2023-02-04T02:34:25;2.50;99.90
13598;DHT22;38563;54.258;12.574;2023-02-04T02:36:52;2.50;99.90
13598;DHT22;38563;54.258;12.574;2023-02-04T02:39:19;2.40;99.90
13598;DHT22;38563;54.258;12.574;2023-02-04T02:41:48;2.40;99.90
13598;DHT22;38563;54.258;12.574;2023-02-04T02:44:15;2.40;99.90
13598;DHT22;38563;54.258;12.574;2023-02-04T02:46:43;2.40;99.90
13598;DHT22;38563;54.258;12.574;2023-02-04T02:49:13;2.40;99.90
13598;DHT22;38563;54.258;12.574;2023-02-04T02:51:41;2.30;99.90
13598;DHT22;38563;54.258;12.574;2023-02-04T02:54:16;2.30;99.90
13598;DHT22;38563;54.258;12.574;2023-02-04T02:56:44;2.20;99.90
13598;DHT22;38563;54.258;12.574;2023-02-04T02:59:16;2.20;99.90
13598;DHT22;38563;54.258;12.574;2023-02-04T03:01:44;2.10;99.90
13598;DHT22;38563;54.258;12.574;2023-02-04T03:04:14;2.10;99.90
13598;DHT22;38563;54.258;12.574;2023-02-04T03:06:42;2.00;99.90
13598;DHT22;38563;54.258;12.574;2023-02-04T03:09:09;1.90;99.90
13598;DHT22;38563;54.258;12.574;2023-02-04T03:11:36;1.80;99.90
13598;DHT22;38563;54.258;12.574;2023-02-04T03:14:04;1.80;99.90
13598;DHT22;38563;54.258;12.574;2023-02-04T03:16:33;1.70;99.90
13598;DHT22;38563;54.258;12.574;2023-02-04T03:19:02;1.60;99.90
13598;DHT22;38563;54.258;12.574;2023-02-04T03:21:30;1.60;99.90
13598;DHT22;38563;54.258;12.574;2023-02-04T03:23:57;1.50;99.90
13598;DHT22;38563;54.258;12.574;2023-02-04T03:26:24;1.40;99.90
13598;DHT22;38563;54.258;12.574;2023-02-04T03:28:53;1.30;99.90
13598;DHT22;38563;54.258;12.574;2023-02-04T03:31:20;1.30;99.90
13598;DHT22;38563;54.258;12.574;2023-02-04T03:33:48;1.20;99.90
13598;DHT22;38563;54.258;12.574;2023-02-04T03:36:14;1.20;99.90
13598;DHT22;38563;54.258;12.574;2023-02-04T03:38:41;1.10;99.90
13598;DHT22;38563;54.258;12.574;2023-02-04T03:41:08;1.10;99.90
13598;DHT22;38563;54.258;12.574;2023-02-04T03:43:34;1.00;99.90
13598;DHT22;38563;54.258;12.574;2023-02-04T03:46:01;1.00;99.90
13598;DHT22;38563;54.258;12.574;2023-02-04T03:48:28;1.00;99.90
13598;DHT22;38563;54.258;12.574;2023-02-04T03:50:56;0.90;99.90
13598;DHT22;38563;54.258;12.574;2023-02-04T03:53:22;0.90;99.90
13598;DHT22;38563;54.258;12.574;2023-02-04T03:55:49;0.90;99.90
13598;DHT22;38563;54.258;12.574;2023-02-04T03:58:16;0.90;99.90
13598;DHT22;38563;54.258;12.574;2023-02-04T04:00:42;0.90;99.90
13598;DHT22;38563;54.258;12.574;2023-02-04T04:03:09;0.90;99.90
13598;DHT22;38563;54.258;12.574;2023-02-04T04:05:36;0.90;99.90
13598;DHT22;38563;54.258;12.574;2023-02-04T04:08:04;1.00;99.90
13598;DHT22;38563;54.258;12.574;2023-02-04T04:10:30;1.10;99.90
13598;DHT22;38563;54.258;12.574;2023-02-04T04:12:57;1.20;99.90
13598;DHT22;38563;54.258;12.574;2023-02-04T04:15:24;1.20;99.90
13598;DHT22;38563;54.258;12.574;2023-02-04T04:17:51;1.30;99.90
13598;DHT22;38563;54.258;12.574;2023-02-04T04:20:17;1.30;99.90
13598;DHT22;38563;54.258;12.574;2023-02-04T04:22:44;1.30;99.90
13598;DHT22;38563;54.258;12.574;2023-02-04T04:25:12;1.30;99.90
13598;DHT22;38563;54.258;12.574;2023-02-04T04:27:39;1.30;99.90
13598;DHT22;38563;54.258;12.574;2023-02-04T04:30:06;1.40;99.90
13598;DHT22;38563;54.258;12.574;2023-02-04T04:32:33;1.40;99.90
13598;DHT22;38563;54.258;12.574;2023-02-04T04:34:59;1.40;99.90
13598;DHT22;38563;54.258;12.574;2023-02-04T04:37:26;1.50;99.90
13598;DHT22;38563;54.258;12.574;2023-02-04T04:39:53;1.40;99.90
13598;DHT22;38563;54.258;12.574;2023-02-04T04:42:21;1.50;99.90
13598;DHT22;38563;54.258;12.574;2023-02-04T04:44:47;1.40;99.90
13598;DHT22;38563;54.258;12.574;2023-02-04T04:47:14;1.40;99.90
13598;DHT22;38563;54.258;12.574;2023-02-04T04:49:41;1.30;99.90
13598;DHT22;38563;54.258;12.574;2023-02-04T04:52:07;1.30;99.90
13598;DHT22;38563;54.258;12.574;2023-02-04T04:54:35;1.40;99.90
13598;DHT22;38563;54.258;12.574;2023-02-04T04:57:02;1.40;99.90
13598;DHT22;38563;54.258;12.574;2023-02-04T04:59:30;1.50;99.90
13598;DHT22;38563;54.258;12.574;2023-02-04T05:01:56;1.50;99.90
13598;DHT22;38563;54.258;12.574;2023-02-04T05:04:23;1.50;99.90
13598;DHT22;38563;54.258;12.574;2023-02-04T05:06:49;1.50;99.90
13598;DHT22;38563;54.258;12.574;2023-02-04T05:09:16;1.50;99.90
13598;DHT22;38563;54.258;12.574;2023-02-04T05:11:43;1.40;99.90
13598;DHT22;38563;54.258;12.574;2023-02-04T05:14:09;1.30;99.90
13598;DHT22;38563;54.258;12.574;2023-02-04T05:16:37;1.30;99.90
13598;DHT22;38563;54.258;12.574;2023-02-04T05:19:04;1.30;99.90
13598;DHT22;38563;54.258;12.574;2023-02-04T05:21:31;1.20;99.90
13598;DHT22;38563;54.258;12.574;2023-02-04T05:23:57;1.30;99.90
13598;DHT22;38563;54.258;12.574;2023-02-04T05:26:24;1.30;99.90
13598;DHT22;38563;54.258;12.574;2023-02-04T05:28:51;1.40;99.90
13598;DHT22;38563;54.258;12.574;2023-02-04T05:31:18;1.40;99.90
13598;DHT22;38563;54.258;12.574;2023-02-04T05:33:46;1.50;99.90
13598;DHT22;38563;54.258;12.574;2023-02-04T05:36:13;1.40;99.90
13598;DHT22;38563;54.258;12.574;2023-02-04T05:38:39;1.40;99.90
13598;DHT22;38563;54.258;12.574;2023-02-04T05:41:06;1.40;99.90
13598;DHT22;38563;54.258;12.574;2023-02-04T05:43:32;1.30;99.90
13598;DHT22;38563;54.258;12.574;2023-02-04T05:45:59;1.30;99.90
13598;DHT22;38563;54.258;12.574;2023-02-04T05:48:26;1.20;99.90
13598;DHT22;38563;54.258;12.574;2023-02-04T05:50:54;1.20;99.90
13598;DHT22;38563;54.258;12.574;2023-02-04T05:53:20;1.20;99.90
13598;DHT22;38563;54.258;12.574;2023-02-04T05:55:47;1.20;99.90
13598;DHT22;38563;54.258;12.574;2023-02-04T05:58:14;1.20;99.90
13598;DHT22;38563;54.258;12.574;2023-02-04T06:00:40;1.20;99.90
13598;DHT22;38563;54.258;12.574;2023-02-04T06:03:07;1.30;99.90
13598;DHT22;38563;54.258;12.574;2023-02-04T06:05:34;1.30;99.90
13598;DHT22;38563;54.258;12.574;2023-02-04T06:08:02;1.30;99.90
13598;DHT22;38563;54.258;12.574;2023-02-04T06:10:28;1.30;99.90
13598;DHT22;38563;54.258;12.574;2023-02-04T06:12:55;1.30;99.90
13598;DHT22;38563;54.258;12.574;2023-02-04T06:15:22;1.20;99.90
13598;DHT22;38563;54.258;12.574;2023-02-04T06:17:48;1.20;99.90
13598;DHT22;38563;54.258;12.574;2023-02-04T06:20:15;1.20;99.90
13598;DHT22;38563;54.258;12.574;2023-02-04T06:22:42;1.10;99.90
13598;DHT22;38563;54.258;12.574;2023-02-04T06:25:10;1.10;99.90
13598;DHT22;38563;54.258;12.574;2023-02-04T06:27:37;1.10;99.90
13598;DHT22;38563;54.258;12.574;2023-02-04T06:30:04;1.10;99.90
13598;DHT22;38563;54.258;12.574;2023-02-04T06:32:31;1.10;99.90
13598;DHT22;38563;54.258;12.574;2023-02-04T06:34:58;1.00;99.90
13598;DHT22;38563;54.258;12.574;2023-02-04T06:37:24;1.00;99.90
13598;DHT22;38563;54.258;12.574;2023-02-04T06:39:51;1.10;99.90
13598;DHT22;38563;54.258;12.574;2023-02-04T06:42:20;1.20;99.90
13598;DHT22;38563;54.258;12.574;2023-02-04T06:44:47;1.30;99.90
13598;DHT22;38563;54.258;12.574;2023-02-04T06:47:13;1.30;99.90
13598;DHT22;38563;54.258;12.574;2023-02-04T06:49:40;1.30;99.90
13598;DHT22;38563;54.258;12.574;2023-02-04T06:52:06;1.30;99.90
13598;DHT22;38563;54.258;12.574;2023-02-04T06:54:33;1.30;99.90
13598;DHT22;38563;54.258;12.574;2023-02-04T06:57:00;1.40;99.90
13598;DHT22;38563;54.258;12.574;2023-02-04T06:59:32;1.40;99.90
13598;DHT22;38563;54.258;12.574;2023-02-04T07:01:59;1.40;99.90
13598;DHT22;38563;54.258;12.574;2023-02-04T07:04:26;1.30;99.90
13598;DHT22;38563;54.258;12.574;2023-02-04T07:06:52;1.40;99.90
13598;DHT22;38563;54.258;12.574;2023-02-04T07:09:19;1.40;99.90
13598;DHT22;38563;54.258;12.574;2023-02-04T07:11:46;1.40;99.90
13598;DHT22;38563;54.258;12.574;2023-02-04T07:14:13;1.30;99.90
13598;DHT22;38563;54.258;12.574;2023-02-04T07:16:41;1.30;99.90
13598;DHT22;38563;54.258;12.574;2023-02-04T07:19:08;1.30;99.90
13598;DHT22;38563;54.258;12.574;2023-02-04T07:21:34;1.40;99.90
13598;DHT22;38563;54.258;12.574;2023-02-04T07:24:02;1.50;99.90
13598;DHT22;38563;54.258;12.574;2023-02-04T07:26:28;1.50;99.90
13598;DHT22;38563;54.258;12.574;2023-02-04T07:28:55;1.60;99.90
13598;DHT22;38563;54.258;12.574;2023-02-04T07:31:22;1.60;99.90
13598;DHT22;38563;54.258;12.574;2023-02-04T07:33:50;1.60;99.90
13598;DHT22;38563;54.258;12.574;2023-02-04T07:36:17;1.60;99.90
13598;DHT22;38563;54.258;12.574;2023-02-04T07:38:43;1.60;99.90
13598;DHT22;38563;54.258;12.574;2023-02-04T07:41:10;1.60;99.90
13598;DHT22;38563;54.258;12.574;2023-02-04T07:43:36;1.60;99.90
13598;DHT22;38563;54.258;12.574;2023-02-04T07:46:03;1.60;99.90
13598;DHT22;38563;54.258;12.574;2023-02-04T07:48:30;1.70;99.90
13598;DHT22;38563;54.258;12.574;2023-02-04T07:50:58;1.70;99.90
13598;DHT22;38563;54.258;12.574;2023-02-04T07:53:25;1.80;99.90
13598;DHT22;38563;54.258;12.574;2023-02-04T07:55:51;1.80;99.90
13598;DHT22;38563;54.258;12.574;2023-02-04T07:58:18;1.90;99.90
13598;DHT22;38563;54.258;12.574;2023-02-04T08:00:45;2.00;99.90
13598;DHT22;38563;54.258;12.574;2023-02-04T08:03:11;2.00;99.90
13598;DHT22;38563;54.258;12.574;2023-02-04T08:05:38;2.10;99.90
13598;DHT22;38563;54.258;12.574;2023-02-04T08:08:06;2.00;99.90
13598;DHT22;38563;54.258;12.574;2023-02-04T08:10:33;2.00;99.90
13598;DHT22;38563;54.258;12.574;2023-02-04T08:13:00;2.00;99.90
13598;DHT22;38563;54.258;12.574;2023-02-04T08:15:26;2.00;99.90
13598;DHT22;38563;54.258;12.574;2023-02-04T08:17:53;2.00;99.90
13598;DHT22;38563;54.258;12.574;2023-02-04T08:20:19;2.00;99.90
13598;DHT22;38563;54.258;12.574;2023-02-04T08:22:46;1.90;99.90
13598;DHT22;38563;54.258;12.574;2023-02-04T08:25:14;1.90;99.90
13598;DHT22;38563;54.258;12.574;2023-02-04T08:27:41;1.90;99.90
13598;DHT22;38563;54.258;12.574;2023-02-04T08:30:09;1.90;99.90
13598;DHT22;38563;54.258;12.574;2023-02-04T08:32:36;2.00;99.90
13598;DHT22;38563;54.258;12.574;2023-02-04T08:35:04;2.10;99.90
13598;DHT22;38563;54.258;12.574;2023-02-04T08:37:30;2.10;99.90
13598;DHT22;38563;54.258;12.574;2023-02-04T08:39:57;2.20;99.90
13598;DHT22;38563;54.258;12.574;2023-02-04T08:42:25;2.20;99.90
13598;DHT22;38563;54.258;12.574;2023-02-04T08:44:51;2.10;99.90
13598;DHT22;38563;54.258;12.574;2023-02-04T08:47:18;2.10;99.90
13598;DHT22;38563;54.258;12.574;2023-02-04T08:49:45;2.10;99.90
13598;DHT22;38563;54.258;12.574;2023-02-04T08:52:11;2.10;99.90
13598;DHT22;38563;54.258;12.574;2023-02-04T08:54:38;2.10;99.90
13598;DHT22;38563;54.258;12.574;2023-02-04T08:57:05;2.10;99.90
13598;DHT22;38563;54.258;12.574;2023-02-04T08:59:33;2.00;99.90
13598;DHT22;38563;54.258;12.574;2023-02-04T09:01:59;2.00;99.90
13598;DHT22;38563;54.258;12.574;2023-02-04T09:04:27;1.90;99.90
13598;DHT22;38563;54.258;12.574;2023-02-04T09:06:54;1.70;99.90
13598;DHT22;38563;54.258;12.574;2023-02-04T09:09:21;1.60;99.90
13598;DHT22;38563;54.258;12.574;2023-02-04T09:11:47;1.50;99.90
13598;DHT22;38563;54.258;12.574;2023-02-04T09:14:14;1.50;99.90
13598;DHT22;38563;54.258;12.574;2023-02-04T09:16:42;1.50;99.90
13598;DHT22;38563;54.258;12.574;2023-02-04T09:19:09;1.60;99.90
13598;DHT22;38563;54.258;12.574;2023-02-04T09:21:37;1.60;99.90
13598;DHT22;38563;54.258;12.574;2023-02-04T09:24:04;1.70;99.90
13598;DHT22;38563;54.258;12.574;2023-02-04T09:26:31;1.70;99.90
13598;DHT22;38563;54.258;12.574;2023-02-04T09:28:57;1.70;99.90
13598;DHT22;38563;54.258;12.574;2023-02-04T09:31:24;1.80;99.90
13598;DHT22;38563;54.258;12.574;2023-02-04T09:33:52;1.80;99.90
13598;DHT22;38563;54.258;12.574;2023-02-04T09:36:19;1.90;99.90
13598;DHT22;38563;54.258;12.574;2023-02-04T09:38:46;1.80;99.90
13598;DHT22;38563;54.258;12.574;2023-02-04T09:41:13;1.90;99.90
13598;DHT22;38563;54.258;12.574;2023-02-04T09:43:43;1.90;99.90
13598;DHT22;38563;54.258;12.574;2023-02-04T09:46:19;1.90;99.90
13598;DHT22;38563;54.258;12.574;2023-02-04T09:48:46;2.00;99.90
13598;DHT22;38563;54.258;12.574;2023-02-04T09:51:17;2.20;99.90
13598;DHT22;38563;54.258;12.574;2023-02-04T09:53:44;2.20;99.90
13598;DHT22;38563;54.258;12.574;2023-02-04T09:56:11;2.10;99.90
13598;DHT22;38563;54.258;12.574;2023-02-04T09:58:39;2.00;99.90
13598;DHT22;38563;54.258;12.574;2023-02-04T10:01:11;2.00;99.90
13598;DHT22;38563;54.258;12.574;2023-02-04T10:03:39;2.00;99.90
13598;DHT22;38563;54.258;12.574;2023-02-04T10:06:11;2.00;99.90
13598;DHT22;38563;54.258;12.574;2023-02-04T10:08:40;1.90;99.90
13598;DHT22;38563;54.258;12.574;2023-02-04T10:11:07;1.80;99.90
13598;DHT22;38563;54.258;12.574;2023-02-04T10:13:37;1.80;99.90
13598;DHT22;38563;54.258;12.574;2023-02-04T10:16:14;1.80;99.90
13598;DHT22;38563;54.258;12.574;2023-02-04T10:18:42;1.90;99.90
13598;DHT22;38563;54.258;12.574;2023-02-04T10:21:15;1.90;99.90
13598;DHT22;38563;54.258;12.574;2023-02-04T10:23:45;2.00;99.90
13598;DHT22;38563;54.258;12.574;2023-02-04T10:26:13;2.00;99.90
13598;DHT22;38563;54.258;12.574;2023-02-04T10:28:41;2.00;99.90
13598;DHT22;38563;54.258;12.574;2023-02-04T10:31:30;2.10;99.90
13598;DHT22;38563;54.258;12.574;2023-02-04T10:34:10;2.10;99.90
13598;DHT22;38563;54.258;12.574;2023-02-04T10:36:38;2.10;99.90
13598;DHT22;38563;54.258;12.574;2023-02-04T10:39:12;2.10;99.90
13598;DHT22;38563;54.258;12.574;2023-02-04T10:41:44;2.00;99.90
13598;DHT22;38563;54.258;12.574;2023-02-04T10:44:16;1.90;99.90
13598;DHT22;38563;54.258;12.574;2023-02-04T10:46:43;1.80;99.90
13598;DHT22;38563;54.258;12.574;2023-02-04T10:49:18;1.80;99.90
13598;DHT22;38563;54.258;12.574;2023-02-04T10:51:45;1.80;99.90
13598;DHT22;38563;54.258;12.574;2023-02-04T10:54:14;1.90;99.90
13598;DHT22;38563;54.258;12.574;2023-02-04T10:56:57;2.00;99.90
13598;DHT22;38563;54.258;12.574;2023-02-04T10:59:25;2.00;99.90
13598;DHT22;38563;54.258;12.574;2023-02-04T11:01:55;1.90;99.90
13598;DHT22;38563;54.258;12.574;2023-02-04T11:04:22;1.90;99.90
13598;DHT22;38563;54.258;12.574;2023-02-04T11:06:50;2.00;99.90
13598;DHT22;38563;54.258;12.574;2023-02-04T11:09:18;2.10;99.90
13598;DHT22;38563;54.258;12.574;2023-02-04T11:11:45;2.20;99.90
13598;DHT22;38563;54.258;12.574;2023-02-04T11:14:26;2.10;99.90
13598;DHT22;38563;54.258;12.574;2023-02-04T11:16:54;2.10;99.90
13598;DHT22;38563;54.258;12.574;2023-02-04T11:19:36;2.00;99.90
13598;DHT22;38563;54.258;12.574;2023-02-04T11:22:05;2.00;99.90
13598;DHT22;38563;54.258;12.574;2023-02-04T11:24:34;1.90;99.90
13598;DHT22;38563;54.258;12.574;2023-02-04T11:27:06;2.00;99.90
13598;DHT22;38563;54.258;12.574;2023-02-04T11:29:34;2.10;99.90
13598;DHT22;38563;54.258;12.574;2023-02-04T11:32:04;2.00;99.90
13598;DHT22;38563;54.258;12.574;2023-02-04T11:34:45;1.90;99.90
13598;DHT22;38563;54.258;12.574;2023-02-04T11:37:15;1.90;99.90
13598;DHT22;38563;54.258;12.574;2023-02-04T11:39:46;2.00;99.90
13598;DHT22;38563;54.258;12.574;2023-02-04T11:42:20;2.00;99.90
13598;DHT22;38563;54.258;12.574;2023-02-04T11:44:51;2.10;99.90
13598;DHT22;38563;54.258;12.574;2023-02-04T11:47:18;2.10;99.90
13598;DHT22;38563;54.258;12.574;2023-02-04T11:49:46;2.20;99.90
13598;DHT22;38563;54.258;12.574;2023-02-04T11:52:18;2.20;99.90
13598;DHT22;38563;54.258;12.574;2023-02-04T11:54:53;2.30;99.90
13598;DHT22;38563;54.258;12.574;2023-02-04T11:57:20;2.30;99.90
13598;DHT22;38563;54.258;12.574;2023-02-04T11:59:47;2.40;99.90
13598;DHT22;38563;54.258;12.574;2023-02-04T12:02:17;2.20;99.90
13598;DHT22;38563;54.258;12.574;2023-02-04T12:05:07;2.00;99.90
13598;DHT22;38563;54.258;12.574;2023-02-04T12:07:35;1.80;99.90
13598;DHT22;38563;54.258;12.574;2023-02-04T12:10:12;1.80;99.90
13598;DHT22;38563;54.258;12.574;2023-02-04T12:12:42;1.80;99.90
13598;DHT22;38563;54.258;12.574;2023-02-04T12:15:14;1.80;99.90
13598;DHT22;38563;54.258;12.574;2023-02-04T12:17:43;1.90;99.90
13598;DHT22;38563;54.258;12.574;2023-02-04T12:20:11;2.00;99.90
13598;DHT22;38563;54.258;12.574;2023-02-04T12:22:38;1.90;99.90
13598;DHT22;38563;54.258;12.574;2023-02-04T12:25:06;1.70;99.90
13598;DHT22;38563;54.258;12.574;2023-02-04T12:27:34;1.60;99.90
13598;DHT22;38563;54.258;12.574;2023-02-04T12:30:00;1.50;99.90
13598;DHT22;38563;54.258;12.574;2023-02-04T12:32:27;1.50;99.90
13598;DHT22;38563;54.258;12.574;2023-02-04T12:34:54;1.60;99.90
13598;DHT22;38563;54.258;12.574;2023-02-04T12:37:20;1.60;99.90
13598;DHT22;38563;54.258;12.574;2023-02-04T12:39:47;1.50;99.90
13598;DHT22;38563;54.258;12.574;2023-02-04T12:42:14;1.50;99.90
13598;DHT22;38563;54.258;12.574;2023-02-04T12:44:42;1.50;99.90
13598;DHT22;38563;54.258;12.574;2023-02-04T12:47:08;1.50;99.90
13598;DHT22;38563;54.258;12.574;2023-02-04T12:49:35;1.40;99.90
13598;DHT22;38563;54.258;12.574;2023-02-04T12:52:02;1.40;99.90
13598;DHT22;38563;54.258;12.574;2023-02-04T12:54:29;1.40;99.90
13598;DHT22;38563;54.258;12.574;2023-02-04T12:56:56;1.40;99.90
13598;DHT22;38563;54.258;12.574;2023-02-04T12:59:23;1.40;99.90
13598;DHT22;38563;54.258;12.574;2023-02-04T13:01:51;1.40;99.90
13598;DHT22;38563;54.258;12.574;2023-02-04T13:04:18;1.50;99.90
13598;DHT22;38563;54.258;12.574;2023-02-04T13:06:45;1.40;99.90
13598;DHT22;38563;54.258;12.574;2023-02-04T13:09:11;1.40;99.90
13598;DHT22;38563;54.258;12.574;2023-02-04T13:11:38;1.30;99.90
13598;DHT22;38563;54.258;12.574;2023-02-04T13:14:05;1.30;99.90
13598;DHT22;38563;54.258;12.574;2023-02-04T13:16:31;1.20;99.90
13598;DHT22;38563;54.258;12.574;2023-02-04T13:18:59;1.20;99.90
13598;DHT22;38563;54.258;12.574;2023-02-04T13:21:26;1.20;99.90
13598;DHT22;38563;54.258;12.574;2023-02-04T13:23:53;1.20;99.90
13598;DHT22;38563;54.258;12.574;2023-02-04T13:26:19;1.20;99.90
13598;DHT22;38563;54.258;12.574;2023-02-04T13:28:46;1.20;99.90
13598;DHT22;38563;54.258;12.574;2023-02-04T13:31:13;1.20;99.90
13598;DHT22;38563;54.258;12.574;2023-02-04T13:33:39;1.20;99.90
13598;DHT22;38563;54.258;12.574;2023-02-04T13:36:07;1.20;99.90
13598;DHT22;38563;54.258;12.574;2023-02-04T13:38:34;1.20;99.90
13598;DHT22;38563;54.258;12.574;2023-02-04T13:41:01;1.20;99.90
13598;DHT22;38563;54.258;12.574;2023-02-04T13:43:28;1.10;99.90
13598;DHT22;38563;54.258;12.574;2023-02-04T13:45:54;1.00;99.90
13598;DHT22;38563;54.258;12.574;2023-02-04T13:48:22;1.00;99.90
13598;DHT22;38563;54.258;12.574;2023-02-04T13:50:49;0.90;99.90
13598;DHT22;38563;54.258;12.574;2023-02-04T13:53:17;0.90;99.90
13598;DHT22;38563;54.258;12.574;2023-02-04T13:55:44;0.90;99.90
13598;DHT22;38563;54.258;12.574;2023-02-04T13:58:10;0.90;99.90
13598;DHT22;38563;54.258;12.574;2023-02-04T14:00:37;0.90;99.90
13598;DHT22;38563;54.258;12.574;2023-02-04T14:03:03;0.80;99.90
13598;DHT22;38563;54.258;12.574;2023-02-04T14:05:30;0.80;99.90
13598;DHT22;38563;54.258;12.574;2023-02-04T14:07:57;0.70;99.90
13598;DHT22;38563;54.258;12.574;2023-02-04T14:10:25;0.70;99.90
13598;DHT22;38563;54.258;12.574;2023-02-04T14:12:52;0.70;99.90
13598;DHT22;38563;54.258;12.574;2023-02-04T14:15:18;0.70;99.90
13598;DHT22;38563;54.258;12.574;2023-02-04T14:17:45;0.60;99.90
13598;DHT22;38563;54.258;12.574;2023-02-04T14:20:12;0.60;99.90
13598;DHT22;38563;54.258;12.574;2023-02-04T14:22:39;0.60;99.90
13598;DHT22;38563;54.258;12.574;2023-02-04T14:25:06;0.50;99.90
13598;DHT22;38563;54.258;12.574;2023-02-04T14:27:35;0.50;99.90
13598;DHT22;38563;54.258;12.574;2023-02-04T14:30:08;0.40;99.90
13598;DHT22;38563;54.258;12.574;2023-02-04T14:32:35;0.40;99.90
13598;DHT22;38563;54.258;12.574;2023-02-04T14:35:02;0.30;99.90
13598;DHT22;38563;54.258;12.574;2023-02-04T14:37:28;0.20;99.90
13598;DHT22;38563;54.258;12.574;2023-02-04T14:39:55;0.20;99.90
13598;DHT22;38563;54.258;12.574;2023-02-04T14:42:22;0.20;99.90
13598;DHT22;38563;54.258;12.574;2023-02-04T14:44:50;0.20;99.90
13598;DHT22;38563;54.258;12.574;2023-02-04T14:47:16;0.20;99.90
13598;DHT22;38563;54.258;12.574;2023-02-04T14:49:43;0.20;99.90
13598;DHT22;38563;54.258;12.574;2023-02-04T14:52:10;0.10;99.90
13598;DHT22;38563;54.258;12.574;2023-02-04T14:54:37;0.10;99.90
13598;DHT22;38563;54.258;12.574;2023-02-04T14:57:04;0.00;99.90
13598;DHT22;38563;54.258;12.574;2023-02-04T14:59:31;0.00;99.90
13598;DHT22;38563;54.258;12.574;2023-02-04T15:01:59;0.00;99.90
13598;DHT22;38563;54.258;12.574;2023-02-04T15:04:26;0.00;99.90
13598;DHT22;38563;54.258;12.574;2023-02-04T15:06:52;0.00;99.90
13598;DHT22;38563;54.258;12.574;2023-02-04T15:09:20;-0.10;99.90
13598;DHT22;38563;54.258;12.574;2023-02-04T15:11:46;-0.20;99.90
13598;DHT22;38563;54.258;12.574;2023-02-04T15:14:13;-0.20;99.90
13598;DHT22;38563;54.258;12.574;2023-02-04T15:16:39;-0.30;99.90
13598;DHT22;38563;54.258;12.574;2023-02-04T15:19:09;-0.30;99.90
13598;DHT22;38563;54.258;12.574;2023-02-04T15:21:35;-0.40;99.90
13598;DHT22;38563;54.258;12.574;2023-02-04T15:24:02;-0.50;99.90
13598;DHT22;38563;54.258;12.574;2023-02-04T15:26:29;-0.50;99.90
13598;DHT22;38563;54.258;12.574;2023-02-04T15:28:56;-0.60;99.90
13598;DHT22;38563;54.258;12.574;2023-02-04T15:31:23;-0.60;99.90
13598;DHT22;38563;54.258;12.574;2023-02-04T15:33:50;-0.70;99.90